sensor_id;sensor_type;location;lat;lon;timestamp;temperature;humidity
23507;DHT22;11930;53.076;18.250;2023-06-22T00:01:17;17.70;99.90
23507;DHT22;11930;53.076;18.250;2023-06-22T00:08:36;17.60;99.90
23507;DHT22;11930;53.076;18.250;2023-06-22T00:11:02;17.50;99.90
23507;DHT22;11930;53.076;18.250;2023-06-22T00:13:31;17.80;99.90
23507;DHT22;11930;53.076;18.250;2023-06-22T00:18:24;17.50;99.90
23507;DHT22;11930;53.076;18.250;2023-06-22T00:20:56;17.70;99.90
23507;DHT22;11930;53.076;18.250;2023-06-22T00:23:24;17.60;99.90
23507;DHT22;11930;53.076;18.250;2023-06-22T00:25:50;17.50;99.90
23507;DHT22;11930;53.076;18.250;2023-06-22T00:30:42;17.90;99.90
23507;DHT22;11930;53.076;18.250;2023-06-22T00:33:08;17.80;99.90
23507;DHT22;11930;53.076;18.250;2023-06-22T00:38:01;17.80;99.90
23507;DHT22;11930;53.076;18.250;2023-06-22T00:40:28;17.90;99.90
23507;DHT22;11930;53.076;18.250;2023-06-22T00:42:55;18.00;99.90
23507;DHT22;11930;53.076;18.250;2023-06-22T00:45:22;18.10;99.90
23507;DHT22;11930;53.076;18.250;2023-06-22T00:47:53;18.10;99.90
23507;DHT22;11930;53.076;18.250;2023-06-22T00:50:23;18.00;99.90
23507;DHT22;11930;53.076;18.250;2023-06-22T00:52:55;17.80;99.90
23507;DHT22;11930;53.076;18.250;2023-06-22T00:55:25;17.80;99.90
23507;DHT22;11930;53.076;18.250;2023-06-22T00:57:52;17.40;99.90
23507;DHT22;11930;53.076;18.250;2023-06-22T01:00:23;18.00;99.90
23507;DHT22;11930;53.076;18.250;2023-06-22T01:02:52;18.30;99.90
23507;DHT22;11930;53.076;18.250;2023-06-22T01:05:22;17.90;99.90
23507;DHT22;11930;53.076;18.250;2023-06-22T01:08:00;18.10;99.90
23507;DHT22;11930;53.076;18.250;2023-06-22T01:10:38;18.10;99.90
23507;DHT22;11930;53.076;18.250;2023-06-22T01:13:16;18.10;99.90
23507;DHT22;11930;53.076;18.250;2023-06-22T01:15:48;18.10;99.90
23507;DHT22;11930;53.076;18.250;2023-06-22T01:18:18;18.20;99.90
23507;DHT22;11930;53.076;18.250;2023-06-22T01:20:44;18.20;99.90
23507;DHT22;11930;53.076;18.250;2023-06-22T01:23:33;18.40;99.90
23507;DHT22;11930;53.076;18.250;2023-06-22T01:28:47;17.90;99.90
23507;DHT22;11930;53.076;18.250;2023-06-22T01:31:23;18.00;99.90
23507;DHT22;11930;53.076;18.250;2023-06-22T01:33:55;18.40;99.90
23507;DHT22;11930;53.076;18.250;2023-06-22T01:36:22;18.40;99.90
23507;DHT22;11930;53.076;18.250;2023-06-22T01:38:50;18.10;99.90
23507;DHT22;11930;53.076;18.250;2023-06-22T01:41:19;18.10;99.90
23507;DHT22;11930;53.076;18.250;2023-06-22T01:43:47;18.00;99.90
23507;DHT22;11930;53.076;18.250;2023-06-22T01:46:14;18.40;99.90
23507;DHT22;11930;53.076;18.250;2023-06-22T01:48:41;17.80;99.90
23507;DHT22;11930;53.076;18.250;2023-06-22T01:51:07;18.20;99.90
23507;DHT22;11930;53.076;18.250;2023-06-22T01:53:33;18.50;99.90
23507;DHT22;11930;53.076;18.250;2023-06-22T01:58:30;17.80;99.90
23507;DHT22;11930;53.076;18.250;2023-06-22T02:01:11;18.30;99.90
23507;DHT22;11930;53.076;18.250;2023-06-22T02:03:44;18.30;99.90
23507;DHT22;11930;53.076;18.250;2023-06-22T02:06:40;18.00;99.90
23507;DHT22;11930;53.076;18.250;2023-06-22T02:09:14;17.90;99.90
23507;DHT22;11930;53.076;18.250;2023-06-22T02:11:43;17.90;99.90
23507;DHT22;11930;53.076;18.250;2023-06-22T02:14:11;17.60;99.90
23507;DHT22;11930;53.076;18.250;2023-06-22T02:16:39;17.50;99.90
23507;DHT22;11930;53.076;18.250;2023-06-22T02:19:05;18.00;99.90
23507;DHT22;11930;53.076;18.250;2023-06-22T02:21:33;17.80;99.90
23507;DHT22;11930;53.076;18.250;2023-06-22T02:24:00;17.90;99.90
23507;DHT22;11930;53.076;18.250;2023-06-22T02:26:26;17.70;99.90
23507;DHT22;11930;53.076;18.250;2023-06-22T02:28:53;17.50;99.90
23507;DHT22;11930;53.076;18.250;2023-06-22T02:31:19;17.80;99.90
23507;DHT22;11930;53.076;18.250;2023-06-22T02:36:14;17.80;99.90
23507;DHT22;11930;53.076;18.250;2023-06-22T02:38:43;17.90;99.90
23507;DHT22;11930;53.076;18.250;2023-06-22T02:41:15;17.40;99.90
23507;DHT22;11930;53.076;18.250;2023-06-22T02:43:47;17.40;99.90
23507;DHT22;11930;53.076;18.250;2023-06-22T02:46:13;17.60;99.90
23507;DHT22;11930;53.076;18.250;2023-06-22T02:48:41;17.60;99.90
23507;DHT22;11930;53.076;18.250;2023-06-22T02:51:07;17.70;99.90
23507;DHT22;11930;53.076;18.250;2023-06-22T02:53:36;17.80;99.90
23507;DHT22;11930;53.076;18.250;2023-06-22T02:56:02;17.70;99.90
23507;DHT22;11930;53.076;18.250;2023-06-22T02:58:32;17.70;99.90
23507;DHT22;11930;53.076;18.250;2023-06-22T03:01:08;17.80;99.90
23507;DHT22;11930;53.076;18.250;2023-06-22T03:06:02;17.80;99.90
23507;DHT22;11930;53.076;18.250;2023-06-22T03:08:29;17.80;99.90
23507;DHT22;11930;53.076;18.250;2023-06-22T03:10:56;17.60;99.90
23507;DHT22;11930;53.076;18.250;2023-06-22T03:13:23;17.90;99.90
23507;DHT22;11930;53.076;18.250;2023-06-22T03:15:49;17.90;99.90
23507;DHT22;11930;53.076;18.250;2023-06-22T03:18:15;18.10;99.90
23507;DHT22;11930;53.076;18.250;2023-06-22T03:23:09;18.20;99.90
23507;DHT22;11930;53.076;18.250;2023-06-22T03:25:35;18.60;99.90
23507;DHT22;11930;53.076;18.250;2023-06-22T03:30:28;18.90;99.90
23507;DHT22;11930;53.076;18.250;2023-06-22T03:32:54;19.20;99.90
23507;DHT22;11930;53.076;18.250;2023-06-22T03:35:20;20.00;99.90
23507;DHT22;11930;53.076;18.250;2023-06-22T03:37:48;20.60;99.90
23507;DHT22;11930;53.076;18.250;2023-06-22T03:40:14;21.00;99.90
23507;DHT22;11930;53.076;18.250;2023-06-22T03:42:40;21.40;99.90
23507;DHT22;11930;53.076;18.250;2023-06-22T03:45:09;21.90;99.90
23507;DHT22;11930;53.076;18.250;2023-06-22T03:47:35;22.30;99.90
23507;DHT22;11930;53.076;18.250;2023-06-22T03:50:01;22.70;99.90
23507;DHT22;11930;53.076;18.250;2023-06-22T03:52:29;23.00;99.90
23507;DHT22;11930;53.076;18.250;2023-06-22T03:54:56;23.40;99.90
23507;DHT22;11930;53.076;18.250;2023-06-22T03:57:22;23.70;99.90
23507;DHT22;11930;53.076;18.250;2023-06-22T03:59:48;23.50;99.90
23507;DHT22;11930;53.076;18.250;2023-06-22T04:02:14;23.80;99.90
23507;DHT22;11930;53.076;18.250;2023-06-22T04:07:06;24.20;99.90
23507;DHT22;11930;53.076;18.250;2023-06-22T04:11:58;24.60;99.90
23507;DHT22;11930;53.076;18.250;2023-06-22T04:14:24;24.30;99.90
23507;DHT22;11930;53.076;18.250;2023-06-22T04:16:51;24.60;99.90
23507;DHT22;11930;53.076;18.250;2023-06-22T04:21:44;25.20;99.90
23507;DHT22;11930;53.076;18.250;2023-06-22T04:24:11;24.90;99.90
23507;DHT22;11930;53.076;18.250;2023-06-22T04:26:37;25.70;99.90
23507;DHT22;11930;53.076;18.250;2023-06-22T04:29:04;26.00;99.90
23507;DHT22;11930;53.076;18.250;2023-06-22T04:31:32;25.60;99.90
23507;DHT22;11930;53.076;18.250;2023-06-22T04:34:06;25.50;99.90
23507;DHT22;11930;53.076;18.250;2023-06-22T04:36:41;25.80;99.90
23507;DHT22;11930;53.076;18.250;2023-06-22T04:39:08;26.40;99.90
23507;DHT22;11930;53.076;18.250;2023-06-22T04:41:36;26.30;99.90
23507;DHT22;11930;53.076;18.250;2023-06-22T04:44:17;26.50;99.90
23507;DHT22;11930;53.076;18.250;2023-06-22T04:46:54;26.60;99.90
23507;DHT22;11930;53.076;18.250;2023-06-22T04:49:26;27.30;98.30
23507;DHT22;11930;53.076;18.250;2023-06-22T04:51:59;27.00;98.40
23507;DHT22;11930;53.076;18.250;2023-06-22T04:54:25;27.10;95.30
23507;DHT22;11930;53.076;18.250;2023-06-22T04:56:52;27.30;96.80
23507;DHT22;11930;53.076;18.250;2023-06-22T04:59:24;27.30;94.10
23507;DHT22;11930;53.076;18.250;2023-06-22T05:01:54;27.50;96.40
23507;DHT22;11930;53.076;18.250;2023-06-22T05:04:22;27.70;96.60
23507;DHT22;11930;53.076;18.250;2023-06-22T05:06:50;28.00;92.30
23507;DHT22;11930;53.076;18.250;2023-06-22T05:09:16;28.20;90.90
23507;DHT22;11930;53.076;18.250;2023-06-22T05:11:43;28.40;89.80
23507;DHT22;11930;53.076;18.250;2023-06-22T05:14:09;28.60;90.60
23507;DHT22;11930;53.076;18.250;2023-06-22T05:16:36;28.70;87.10
23507;DHT22;11930;53.076;18.250;2023-06-22T05:19:03;28.80;85.80
23507;DHT22;11930;53.076;18.250;2023-06-22T05:21:30;29.00;83.30
23507;DHT22;11930;53.076;18.250;2023-06-22T05:23:56;29.10;80.10
23507;DHT22;11930;53.076;18.250;2023-06-22T05:26:27;29.10;80.60
23507;DHT22;11930;53.076;18.250;2023-06-22T05:28:53;29.10;79.70
23507;DHT22;11930;53.076;18.250;2023-06-22T05:31:20;28.70;90.70
23507;DHT22;11930;53.076;18.250;2023-06-22T05:33:46;28.80;91.70
23507;DHT22;11930;53.076;18.250;2023-06-22T05:36:13;29.00;80.00
23507;DHT22;11930;53.076;18.250;2023-06-22T05:38:40;29.00;77.60
23507;DHT22;11930;53.076;18.250;2023-06-22T05:41:07;29.00;77.20
23507;DHT22;11930;53.076;18.250;2023-06-22T05:43:33;29.20;78.60
23507;DHT22;11930;53.076;18.250;2023-06-22T05:46:03;29.20;76.80
23507;DHT22;11930;53.076;18.250;2023-06-22T05:48:29;29.40;77.20
23507;DHT22;11930;53.076;18.250;2023-06-22T05:50:55;29.30;78.70
23507;DHT22;11930;53.076;18.250;2023-06-22T05:53:21;29.50;76.50
23507;DHT22;11930;53.076;18.250;2023-06-22T05:55:48;29.60;74.60
23507;DHT22;11930;53.076;18.250;2023-06-22T05:58:14;29.50;75.00
23507;DHT22;11930;53.076;18.250;2023-06-22T06:00:41;29.60;92.40
23507;DHT22;11930;53.076;18.250;2023-06-22T06:03:07;29.90;77.00
23507;DHT22;11930;53.076;18.250;2023-06-22T06:05:34;29.60;74.00
23507;DHT22;11930;53.076;18.250;2023-06-22T06:08:03;29.80;74.20
23507;DHT22;11930;53.076;18.250;2023-06-22T06:10:31;29.70;74.10
23507;DHT22;11930;53.076;18.250;2023-06-22T06:15:24;29.40;72.60
23507;DHT22;11930;53.076;18.250;2023-06-22T06:17:52;28.80;74.70
23507;DHT22;11930;53.076;18.250;2023-06-22T06:20:21;28.70;74.70
23507;DHT22;11930;53.076;18.250;2023-06-22T06:22:48;28.60;75.50
23507;DHT22;11930;53.076;18.250;2023-06-22T06:25:15;28.40;77.10
23507;DHT22;11930;53.076;18.250;2023-06-22T06:27:46;28.20;79.20
23507;DHT22;11930;53.076;18.250;2023-06-22T06:30:14;28.00;78.20
23507;DHT22;11930;53.076;18.250;2023-06-22T06:32:41;27.80;81.50
23507;DHT22;11930;53.076;18.250;2023-06-22T06:35:09;27.60;80.90
23507;DHT22;11930;53.076;18.250;2023-06-22T06:37:36;27.50;83.40
23507;DHT22;11930;53.076;18.250;2023-06-22T06:40:04;27.40;85.60
23507;DHT22;11930;53.076;18.250;2023-06-22T06:42:32;27.30;81.90
23507;DHT22;11930;53.076;18.250;2023-06-22T06:44:58;27.10;86.40
23507;DHT22;11930;53.076;18.250;2023-06-22T06:47:24;27.00;83.40
23507;DHT22;11930;53.076;18.250;2023-06-22T06:49:50;26.80;86.20
23507;DHT22;11930;53.076;18.250;2023-06-22T06:52:16;26.70;87.90
23507;DHT22;11930;53.076;18.250;2023-06-22T06:54:43;26.60;91.20
23507;DHT22;11930;53.076;18.250;2023-06-22T06:57:08;26.50;90.50
23507;DHT22;11930;53.076;18.250;2023-06-22T06:59:36;26.50;89.60
23507;DHT22;11930;53.076;18.250;2023-06-22T07:02:02;26.60;90.80
23507;DHT22;11930;53.076;18.250;2023-06-22T07:04:28;26.70;93.30
23507;DHT22;11930;53.076;18.250;2023-06-22T07:06:54;26.70;93.60
23507;DHT22;11930;53.076;18.250;2023-06-22T07:09:21;27.00;89.00
23507;DHT22;11930;53.076;18.250;2023-06-22T07:11:46;27.00;90.20
23507;DHT22;11930;53.076;18.250;2023-06-22T07:14:13;27.30;90.20
23507;DHT22;11930;53.076;18.250;2023-06-22T07:16:38;27.50;84.00
23507;DHT22;11930;53.076;18.250;2023-06-22T07:19:05;27.80;83.30
23507;DHT22;11930;53.076;18.250;2023-06-22T07:21:30;27.70;84.60
23507;DHT22;11930;53.076;18.250;2023-06-22T07:23:57;28.10;78.60
23507;DHT22;11930;53.076;18.250;2023-06-22T07:26:22;28.10;78.50
23507;DHT22;11930;53.076;18.250;2023-06-22T07:28:48;28.20;80.30
23507;DHT22;11930;53.076;18.250;2023-06-22T07:31:16;28.40;72.60
23507;DHT22;11930;53.076;18.250;2023-06-22T07:33:42;28.60;75.30
23507;DHT22;11930;53.076;18.250;2023-06-22T07:36:08;28.80;70.60
23507;DHT22;11930;53.076;18.250;2023-06-22T07:38:34;28.80;66.40
23507;DHT22;11930;53.076;18.250;2023-06-22T07:41:03;28.80;68.00
23507;DHT22;11930;53.076;18.250;2023-06-22T07:43:31;29.00;70.20
23507;DHT22;11930;53.076;18.250;2023-06-22T07:45:58;29.10;69.50
23507;DHT22;11930;53.076;18.250;2023-06-22T07:48:24;29.10;69.60
23507;DHT22;11930;53.076;18.250;2023-06-22T07:50:50;29.40;68.80
23507;DHT22;11930;53.076;18.250;2023-06-22T07:53:16;29.50;64.30
23507;DHT22;11930;53.076;18.250;2023-06-22T07:55:42;29.60;63.90
23507;DHT22;11930;53.076;18.250;2023-06-22T07:58:08;29.80;65.10
23507;DHT22;11930;53.076;18.250;2023-06-22T08:00:34;29.90;61.80
23507;DHT22;11930;53.076;18.250;2023-06-22T08:03:00;30.00;61.00
23507;DHT22;11930;53.076;18.250;2023-06-22T08:05:31;30.00;63.60
23507;DHT22;11930;53.076;18.250;2023-06-22T08:07:57;30.00;62.30
23507;DHT22;11930;53.076;18.250;2023-06-22T08:10:23;30.00;62.20
23507;DHT22;11930;53.076;18.250;2023-06-22T08:12:50;30.20;59.50
23507;DHT22;11930;53.076;18.250;2023-06-22T08:15:17;30.30;58.50
23507;DHT22;11930;53.076;18.250;2023-06-22T08:17:44;30.40;60.10
23507;DHT22;11930;53.076;18.250;2023-06-22T08:20:11;30.40;61.30
23507;DHT22;11930;53.076;18.250;2023-06-22T08:22:41;30.50;57.80
23507;DHT22;11930;53.076;18.250;2023-06-22T08:25:08;30.50;57.70
23507;DHT22;11930;53.076;18.250;2023-06-22T08:27:34;30.60;58.60
23507;DHT22;11930;53.076;18.250;2023-06-22T08:30:01;30.80;57.30
23507;DHT22;11930;53.076;18.250;2023-06-22T08:32:28;31.00;58.70
23507;DHT22;11930;53.076;18.250;2023-06-22T08:34:57;31.20;56.70
23507;DHT22;11930;53.076;18.250;2023-06-22T08:37:24;31.30;55.30
23507;DHT22;11930;53.076;18.250;2023-06-22T08:39:59;31.30;55.80
23507;DHT22;11930;53.076;18.250;2023-06-22T08:42:27;31.40;56.20
23507;DHT22;11930;53.076;18.250;2023-06-22T08:44:53;31.40;55.30
23507;DHT22;11930;53.076;18.250;2023-06-22T08:47:19;31.40;55.30
23507;DHT22;11930;53.076;18.250;2023-06-22T08:49:46;31.40;55.80
23507;DHT22;11930;53.076;18.250;2023-06-22T08:52:13;31.50;55.10
23507;DHT22;11930;53.076;18.250;2023-06-22T08:54:39;31.50;53.30
23507;DHT22;11930;53.076;18.250;2023-06-22T08:57:05;31.60;51.30
23507;DHT22;11930;53.076;18.250;2023-06-22T08:59:31;31.60;53.10
23507;DHT22;11930;53.076;18.250;2023-06-22T09:01:57;31.70;52.60
23507;DHT22;11930;53.076;18.250;2023-06-22T09:04:24;31.70;53.30
23507;DHT22;11930;53.076;18.250;2023-06-22T09:06:50;31.60;53.30
23507;DHT22;11930;53.076;18.250;2023-06-22T09:09:18;31.60;52.90
23507;DHT22;11930;53.076;18.250;2023-06-22T09:11:44;31.60;52.60
23507;DHT22;11930;53.076;18.250;2023-06-22T09:14:11;31.50;52.10
23507;DHT22;11930;53.076;18.250;2023-06-22T09:16:37;31.30;54.90
23507;DHT22;11930;53.076;18.250;2023-06-22T09:19:03;31.30;54.50
23507;DHT22;11930;53.076;18.250;2023-06-22T09:21:29;31.30;53.70
23507;DHT22;11930;53.076;18.250;2023-06-22T09:23:55;31.30;52.60
23507;DHT22;11930;53.076;18.250;2023-06-22T09:26:21;31.10;53.40
23507;DHT22;11930;53.076;18.250;2023-06-22T09:28:49;31.00;54.30
23507;DHT22;11930;53.076;18.250;2023-06-22T09:31:15;30.90;52.00
23507;DHT22;11930;53.076;18.250;2023-06-22T09:33:42;30.80;51.70
23507;DHT22;11930;53.076;18.250;2023-06-22T09:36:09;30.80;52.30
23507;DHT22;11930;53.076;18.250;2023-06-22T09:38:36;30.60;53.30
23507;DHT22;11930;53.076;18.250;2023-06-22T09:41:02;30.50;52.10
23507;DHT22;11930;53.076;18.250;2023-06-22T09:43:28;30.40;52.40
23507;DHT22;11930;53.076;18.250;2023-06-22T09:45:54;30.20;53.60
23507;DHT22;11930;53.076;18.250;2023-06-22T09:48:20;30.10;54.40
23507;DHT22;11930;53.076;18.250;2023-06-22T09:50:46;29.90;53.80
23507;DHT22;11930;53.076;18.250;2023-06-22T09:53:12;29.60;54.60
23507;DHT22;11930;53.076;18.250;2023-06-22T09:55:38;29.50;55.40
23507;DHT22;11930;53.076;18.250;2023-06-22T09:58:04;29.20;54.50
23507;DHT22;11930;53.076;18.250;2023-06-22T10:00:30;29.20;53.40
23507;DHT22;11930;53.076;18.250;2023-06-22T10:02:56;29.10;55.50
23507;DHT22;11930;53.076;18.250;2023-06-22T10:07:51;28.90;54.80
23507;DHT22;11930;53.076;18.250;2023-06-22T10:10:17;28.90;56.50
23507;DHT22;11930;53.076;18.250;2023-06-22T10:12:47;28.90;55.30
23507;DHT22;11930;53.076;18.250;2023-06-22T10:15:14;28.80;56.70
23507;DHT22;11930;53.076;18.250;2023-06-22T10:17:40;28.80;58.00
23507;DHT22;11930;53.076;18.250;2023-06-22T10:20:07;28.80;58.10
23507;DHT22;11930;53.076;18.250;2023-06-22T10:22:43;28.60;57.00
23507;DHT22;11930;53.076;18.250;2023-06-22T10:25:11;28.60;57.00
23507;DHT22;11930;53.076;18.250;2023-06-22T10:27:37;28.60;54.10
23507;DHT22;11930;53.076;18.250;2023-06-22T10:30:10;28.40;56.20
23507;DHT22;11930;53.076;18.250;2023-06-22T10:32:38;28.30;56.10
23507;DHT22;11930;53.076;18.250;2023-06-22T10:35:05;28.20;55.70
23507;DHT22;11930;53.076;18.250;2023-06-22T10:37:31;28.20;56.30
23507;DHT22;11930;53.076;18.250;2023-06-22T10:39:58;28.20;57.60
23507;DHT22;11930;53.076;18.250;2023-06-22T10:42:24;28.10;53.30
23507;DHT22;11930;53.076;18.250;2023-06-22T10:44:50;28.10;53.60
23507;DHT22;11930;53.076;18.250;2023-06-22T10:47:16;28.00;55.40
23507;DHT22;11930;53.076;18.250;2023-06-22T10:49:42;27.90;56.50
23507;DHT22;11930;53.076;18.250;2023-06-22T10:52:08;27.90;57.80
23507;DHT22;11930;53.076;18.250;2023-06-22T10:54:35;27.90;55.50
23507;DHT22;11930;53.076;18.250;2023-06-22T10:57:02;27.80;56.60
23507;DHT22;11930;53.076;18.250;2023-06-22T11:01:56;27.70;56.70
23507;DHT22;11930;53.076;18.250;2023-06-22T11:04:22;27.60;58.40
23507;DHT22;11930;53.076;18.250;2023-06-22T11:06:49;27.60;59.60
23507;DHT22;11930;53.076;18.250;2023-06-22T11:09:18;27.70;57.20
23507;DHT22;11930;53.076;18.250;2023-06-22T11:11:51;27.70;56.40
23507;DHT22;11930;53.076;18.250;2023-06-22T11:14:20;27.70;57.00
23507;DHT22;11930;53.076;18.250;2023-06-22T11:16:47;27.80;58.10
23507;DHT22;11930;53.076;18.250;2023-06-22T11:19:13;27.80;57.90
23507;DHT22;11930;53.076;18.250;2023-06-22T11:21:39;27.80;58.60
23507;DHT22;11930;53.076;18.250;2023-06-22T11:24:05;27.90;58.60
23507;DHT22;11930;53.076;18.250;2023-06-22T11:26:32;27.90;58.20
23507;DHT22;11930;53.076;18.250;2023-06-22T11:28:59;27.90;58.90
23507;DHT22;11930;53.076;18.250;2023-06-22T11:31:25;28.00;59.90
23507;DHT22;11930;53.076;18.250;2023-06-22T11:33:51;28.00;57.70
23507;DHT22;11930;53.076;18.250;2023-06-22T11:36:18;28.00;57.50
23507;DHT22;11930;53.076;18.250;2023-06-22T11:38:45;28.00;57.70
23507;DHT22;11930;53.076;18.250;2023-06-22T11:43:37;27.90;57.10
23507;DHT22;11930;53.076;18.250;2023-06-22T11:46:03;27.80;59.40
23507;DHT22;11930;53.076;18.250;2023-06-22T11:48:30;27.80;57.30
23507;DHT22;11930;53.076;18.250;2023-06-22T11:50:56;27.70;56.30
23507;DHT22;11930;53.076;18.250;2023-06-22T11:53:24;27.70;55.70
23507;DHT22;11930;53.076;18.250;2023-06-22T11:55:50;27.70;57.90
23507;DHT22;11930;53.076;18.250;2023-06-22T11:58:17;27.70;59.10
23507;DHT22;11930;53.076;18.250;2023-06-22T12:03:09;28.00;58.80
23507;DHT22;11930;53.076;18.250;2023-06-22T12:05:37;28.00;59.60
23507;DHT22;11930;53.076;18.250;2023-06-22T12:08:04;28.10;57.00
23507;DHT22;11930;53.076;18.250;2023-06-22T12:10:30;28.00;56.80
23507;DHT22;11930;53.076;18.250;2023-06-22T12:12:56;28.10;57.20
23507;DHT22;11930;53.076;18.250;2023-06-22T12:15:26;28.10;55.30
23507;DHT22;11930;53.076;18.250;2023-06-22T12:17:53;28.10;53.90
23507;DHT22;11930;53.076;18.250;2023-06-22T12:22:45;28.00;56.50
23507;DHT22;11930;53.076;18.250;2023-06-22T12:25:11;28.00;55.20
23507;DHT22;11930;53.076;18.250;2023-06-22T12:27:37;28.00;54.10
23507;DHT22;11930;53.076;18.250;2023-06-22T12:30:04;27.90;55.70
23507;DHT22;11930;53.076;18.250;2023-06-22T12:32:30;27.90;57.70
23507;DHT22;11930;53.076;18.250;2023-06-22T12:34:56;27.90;56.60
23507;DHT22;11930;53.076;18.250;2023-06-22T12:37:23;27.90;55.60
23507;DHT22;11930;53.076;18.250;2023-06-22T12:42:16;27.90;56.10
23507;DHT22;11930;53.076;18.250;2023-06-22T12:44:42;27.90;55.90
23507;DHT22;11930;53.076;18.250;2023-06-22T12:47:08;27.90;54.90
23507;DHT22;11930;53.076;18.250;2023-06-22T12:49:35;27.80;55.70
23507;DHT22;11930;53.076;18.250;2023-06-22T12:52:02;27.80;55.50
23507;DHT22;11930;53.076;18.250;2023-06-22T12:56:56;27.90;54.70
23507;DHT22;11930;53.076;18.250;2023-06-22T12:59:22;27.90;54.20
23507;DHT22;11930;53.076;18.250;2023-06-22T13:01:48;27.90;54.40
23507;DHT22;11930;53.076;18.250;2023-06-22T13:04:14;27.90;55.00
23507;DHT22;11930;53.076;18.250;2023-06-22T13:06:41;27.90;55.90
23507;DHT22;11930;53.076;18.250;2023-06-22T13:09:08;27.90;55.60
23507;DHT22;11930;53.076;18.250;2023-06-22T13:11:35;27.80;56.00
23507;DHT22;11930;53.076;18.250;2023-06-22T13:14:01;27.80;56.00
23507;DHT22;11930;53.076;18.250;2023-06-22T13:16:27;27.80;55.20
23507;DHT22;11930;53.076;18.250;2023-06-22T13:18:53;27.70;54.70
23507;DHT22;11930;53.076;18.250;2023-06-22T13:21:19;27.60;56.50
23507;DHT22;11930;53.076;18.250;2023-06-22T13:26:11;27.60;55.30
23507;DHT22;11930;53.076;18.250;2023-06-22T13:31:04;27.40;54.80
23507;DHT22;11930;53.076;18.250;2023-06-22T13:33:30;27.30;54.60
23507;DHT22;11930;53.076;18.250;2023-06-22T13:35:56;27.20;54.70
23507;DHT22;11930;53.076;18.250;2023-06-22T13:40:49;27.20;56.70
23507;DHT22;11930;53.076;18.250;2023-06-22T13:45:42;27.20;55.80
23507;DHT22;11930;53.076;18.250;2023-06-22T13:48:09;27.20;53.80
23507;DHT22;11930;53.076;18.250;2023-06-22T13:50:35;27.30;55.10
23507;DHT22;11930;53.076;18.250;2023-06-22T13:53:01;27.30;56.00
23507;DHT22;11930;53.076;18.250;2023-06-22T13:55:27;27.40;55.20
23507;DHT22;11930;53.076;18.250;2023-06-22T13:57:53;27.40;54.00
23507;DHT22;11930;53.076;18.250;2023-06-22T14:00:20;27.50;55.10
23507;DHT22;11930;53.076;18.250;2023-06-22T14:05:13;27.50;54.20
23507;DHT22;11930;53.076;18.250;2023-06-22T14:10:05;27.60;55.20
23507;DHT22;11930;53.076;18.250;2023-06-22T14:12:31;27.60;55.80
23507;DHT22;11930;53.076;18.250;2023-06-22T14:14:57;27.60;55.50
23507;DHT22;11930;53.076;18.250;2023-06-22T14:19:52;27.60;54.50
23507;DHT22;11930;53.076;18.250;2023-06-22T14:22:22;27.60;54.30
23507;DHT22;11930;53.076;18.250;2023-06-22T14:24:48;27.60;55.30
23507;DHT22;11930;53.076;18.250;2023-06-22T14:27:15;27.80;54.80
23507;DHT22;11930;53.076;18.250;2023-06-22T14:29:41;27.70;56.40
23507;DHT22;11930;53.076;18.250;2023-06-22T14:32:08;27.70;54.20
23507;DHT22;11930;53.076;18.250;2023-06-22T14:34:35;27.70;53.50
23507;DHT22;11930;53.076;18.250;2023-06-22T14:39:30;27.90;56.70
23507;DHT22;11930;53.076;18.250;2023-06-22T14:44:22;27.90;55.20
23507;DHT22;11930;53.076;18.250;2023-06-22T15:06:21;27.70;55.30
23507;DHT22;11930;53.076;18.250;2023-06-22T15:13:41;27.70;52.70
23507;DHT22;11930;53.076;18.250;2023-06-22T15:16:08;27.30;62.60
23507;DHT22;11930;53.076;18.250;2023-06-22T15:18:36;27.30;64.10
23507;DHT22;11930;53.076;18.250;2023-06-22T15:21:03;27.60;54.00
23507;DHT22;11930;53.076;18.250;2023-06-22T15:25:57;27.60;54.10
23507;DHT22;11930;53.076;18.250;2023-06-22T15:28:23;27.70;56.00
23507;DHT22;11930;53.076;18.250;2023-06-22T15:30:49;27.70;55.20
23507;DHT22;11930;53.076;18.250;2023-06-22T15:33:16;27.70;54.20
23507;DHT22;11930;53.076;18.250;2023-06-22T15:35:42;27.70;53.20
23507;DHT22;11930;53.076;18.250;2023-06-22T15:38:08;27.80;53.20
23507;DHT22;11930;53.076;18.250;2023-06-22T15:40:34;27.70;54.10
23507;DHT22;11930;53.076;18.250;2023-06-22T15:43:00;27.80;54.80
23507;DHT22;11930;53.076;18.250;2023-06-22T15:45:26;27.80;53.40
23507;DHT22;11930;53.076;18.250;2023-06-22T15:47:53;27.80;53.90
23507;DHT22;11930;53.076;18.250;2023-06-22T15:52:46;27.90;52.20
23507;DHT22;11930;53.076;18.250;2023-06-22T15:55:18;27.90;54.00
23507;DHT22;11930;53.076;18.250;2023-06-22T15:57:44;27.90;53.30
23507;DHT22;11930;53.076;18.250;2023-06-22T16:00:16;27.90;52.90
23507;DHT22;11930;53.076;18.250;2023-06-22T16:02:44;27.90;53.30
23507;DHT22;11930;53.076;18.250;2023-06-22T16:10:05;27.90;53.30
23507;DHT22;11930;53.076;18.250;2023-06-22T16:12:34;27.90;52.70
23507;DHT22;11930;53.076;18.250;2023-06-22T16:19:53;27.90;51.20
23507;DHT22;11930;53.076;18.250;2023-06-22T16:22:21;27.80;51.00
23507;DHT22;11930;53.076;18.250;2023-06-22T16:29:40;27.80;53.70
23507;DHT22;11930;53.076;18.250;2023-06-22T16:32:07;27.70;54.00
23507;DHT22;11930;53.076;18.250;2023-06-22T16:36:59;27.50;52.00
23507;DHT22;11930;53.076;18.250;2023-06-22T16:41:52;27.30;56.90
23507;DHT22;11930;53.076;18.250;2023-06-22T16:44:18;27.30;57.00
23507;DHT22;11930;53.076;18.250;2023-06-22T16:46:45;27.30;54.10
23507;DHT22;11930;53.076;18.250;2023-06-22T16:49:11;27.30;53.50
23507;DHT22;11930;53.076;18.250;2023-06-22T16:51:37;27.40;54.50
23507;DHT22;11930;53.076;18.250;2023-06-22T16:54:03;27.40;53.70
23507;DHT22;11930;53.076;18.250;2023-06-22T16:56:29;27.30;54.00
23507;DHT22;11930;53.076;18.250;2023-06-22T16:58:57;27.20;55.00
23507;DHT22;11930;53.076;18.250;2023-06-22T17:01:24;27.20;54.00
23507;DHT22;11930;53.076;18.250;2023-06-22T17:06:27;27.20;54.30
23507;DHT22;11930;53.076;18.250;2023-06-22T17:08:56;27.10;55.80
23507;DHT22;11930;53.076;18.250;2023-06-22T17:11:24;27.10;55.90
23507;DHT22;11930;53.076;18.250;2023-06-22T17:13:50;27.00;54.70
23507;DHT22;11930;53.076;18.250;2023-06-22T17:16:16;27.00;57.10
23507;DHT22;11930;53.076;18.250;2023-06-22T17:21:12;26.80;56.10
23507;DHT22;11930;53.076;18.250;2023-06-22T17:23:38;26.70;56.40
23507;DHT22;11930;53.076;18.250;2023-06-22T17:26:06;26.60;57.10